sensor_id;sensor_type;location;lat;lon;timestamp;temperature;humidity
3418;DHT22;1722;51.316;12.370;2022-11-20T00:00:24;0.00;83.00
3418;DHT22;1722;51.316;12.370;2022-11-20T00:02:51;0.00;82.90
3418;DHT22;1722;51.316;12.370;2022-11-20T00:05:19;0.00;82.90
3418;DHT22;1722;51.316;12.370;2022-11-20T00:07:47;0.00;82.90
3418;DHT22;1722;51.316;12.370;2022-11-20T00:10:14;0.00;83.00
3418;DHT22;1722;51.316;12.370;2022-11-20T00:12:43;-0.10;82.90
3418;DHT22;1722;51.316;12.370;2022-11-20T00:15:11;-0.10;83.20
3418;DHT22;1722;51.316;12.370;2022-11-20T00:17:38;-0.10;83.00
3418;DHT22;1722;51.316;12.370;2022-11-20T00:20:07;-0.10;83.10
3418;DHT22;1722;51.316;12.370;2022-11-20T00:22:35;-0.10;83.20
3418;DHT22;1722;51.316;12.370;2022-11-20T00:25:03;-0.10;83.00
3418;DHT22;1722;51.316;12.370;2022-11-20T00:27:31;-0.10;82.80
3418;DHT22;1722;51.316;12.370;2022-11-20T00:30:00;-0.20;82.80
3418;DHT22;1722;51.316;12.370;2022-11-20T00:32:28;-0.20;82.90
3418;DHT22;1722;51.316;12.370;2022-11-20T00:34:55;-0.20;83.10
3418;DHT22;1722;51.316;12.370;2022-11-20T00:37:23;-0.20;83.10
3418;DHT22;1722;51.316;12.370;2022-11-20T00:39:50;-0.20;83.10
3418;DHT22;1722;51.316;12.370;2022-11-20T00:42:18;-0.30;83.10
3418;DHT22;1722;51.316;12.370;2022-11-20T00:44:45;-0.20;83.30
3418;DHT22;1722;51.316;12.370;2022-11-20T00:47:14;-0.30;83.20
3418;DHT22;1722;51.316;12.370;2022-11-20T00:49:42;-0.30;83.20
3418;DHT22;1722;51.316;12.370;2022-11-20T00:52:09;-0.30;83.20
3418;DHT22;1722;51.316;12.370;2022-11-20T00:54:37;-0.30;83.30
3418;DHT22;1722;51.316;12.370;2022-11-20T00:57:04;-0.30;83.80
3418;DHT22;1722;51.316;12.370;2022-11-20T00:59:32;-0.30;83.40
3418;DHT22;1722;51.316;12.370;2022-11-20T01:01:59;-0.40;83.50
3418;DHT22;1722;51.316;12.370;2022-11-20T01:04:28;-0.40;83.50
3418;DHT22;1722;51.316;12.370;2022-11-20T01:06:56;-0.40;83.50
3418;DHT22;1722;51.316;12.370;2022-11-20T01:09:23;-0.40;83.50
3418;DHT22;1722;51.316;12.370;2022-11-20T01:11:51;-0.40;83.50
3418;DHT22;1722;51.316;12.370;2022-11-20T01:14:19;-0.40;83.50
3418;DHT22;1722;51.316;12.370;2022-11-20T01:16:49;-0.40;83.30
3418;DHT22;1722;51.316;12.370;2022-11-20T01:19:19;-0.40;83.40
3418;DHT22;1722;51.316;12.370;2022-11-20T01:21:49;-0.40;83.30
3418;DHT22;1722;51.316;12.370;2022-11-20T01:24:18;-0.50;83.30
3418;DHT22;1722;51.316;12.370;2022-11-20T01:26:48;-0.50;83.50
3418;DHT22;1722;51.316;12.370;2022-11-20T01:29:18;-0.50;83.70
3418;DHT22;1722;51.316;12.370;2022-11-20T01:31:46;-0.50;83.70
3418;DHT22;1722;51.316;12.370;2022-11-20T01:34:16;-0.60;83.80
3418;DHT22;1722;51.316;12.370;2022-11-20T01:36:44;-0.60;84.10
3418;DHT22;1722;51.316;12.370;2022-11-20T01:39:15;-0.60;84.10
3418;DHT22;1722;51.316;12.370;2022-11-20T01:41:44;-0.60;84.00
3418;DHT22;1722;51.316;12.370;2022-11-20T01:44:50;-0.60;84.10
3418;DHT22;1722;51.316;12.370;2022-11-20T01:47:23;-0.60;84.20
3418;DHT22;1722;51.316;12.370;2022-11-20T01:49:55;-0.60;84.30
3418;DHT22;1722;51.316;12.370;2022-11-20T01:52:26;-0.60;84.30
3418;DHT22;1722;51.316;12.370;2022-11-20T01:55:00;-0.60;84.30
3418;DHT22;1722;51.316;12.370;2022-11-20T01:57:30;-0.60;84.40
3418;DHT22;1722;51.316;12.370;2022-11-20T02:00:03;-0.60;84.30
3418;DHT22;1722;51.316;12.370;2022-11-20T02:02:31;-0.60;84.30
3418;DHT22;1722;51.316;12.370;2022-11-20T02:05:04;-0.70;84.50
3418;DHT22;1722;51.316;12.370;2022-11-20T02:07:36;-0.70;84.20
3418;DHT22;1722;51.316;12.370;2022-11-20T02:10:06;-0.70;84.50
3418;DHT22;1722;51.316;12.370;2022-11-20T02:12:33;-0.80;84.70
3418;DHT22;1722;51.316;12.370;2022-11-20T02:15:18;-0.90;84.80
3418;DHT22;1722;51.316;12.370;2022-11-20T02:17:46;-0.90;84.70
3418;DHT22;1722;51.316;12.370;2022-11-20T02:20:13;-0.90;84.50
3418;DHT22;1722;51.316;12.370;2022-11-20T02:22:47;-0.90;84.50
3418;DHT22;1722;51.316;12.370;2022-11-20T02:25:18;-0.90;84.60
3418;DHT22;1722;51.316;12.370;2022-11-20T02:27:46;-0.90;84.70
3418;DHT22;1722;51.316;12.370;2022-11-20T02:30:14;-0.90;84.60
3418;DHT22;1722;51.316;12.370;2022-11-20T02:32:42;-0.90;84.50
3418;DHT22;1722;51.316;12.370;2022-11-20T02:35:40;-1.00;84.90
3418;DHT22;1722;51.316;12.370;2022-11-20T02:38:08;-1.00;84.70
3418;DHT22;1722;51.316;12.370;2022-11-20T02:40:37;-1.00;84.80
3418;DHT22;1722;51.316;12.370;2022-11-20T02:43:05;-1.00;84.80
3418;DHT22;1722;51.316;12.370;2022-11-20T02:45:32;-1.00;84.70
3418;DHT22;1722;51.316;12.370;2022-11-20T02:48:00;-1.00;84.90
3418;DHT22;1722;51.316;12.370;2022-11-20T02:50:27;-1.00;85.10
3418;DHT22;1722;51.316;12.370;2022-11-20T02:52:55;-1.00;85.10
3418;DHT22;1722;51.316;12.370;2022-11-20T02:55:23;-1.00;84.70
3418;DHT22;1722;51.316;12.370;2022-11-20T02:57:51;-1.10;84.90
3418;DHT22;1722;51.316;12.370;2022-11-20T03:00:19;-1.10;84.90
3418;DHT22;1722;51.316;12.370;2022-11-20T03:02:46;-1.10;85.20
3418;DHT22;1722;51.316;12.370;2022-11-20T03:05:14;-1.20;85.80
3418;DHT22;1722;51.316;12.370;2022-11-20T03:07:43;-1.20;85.00
3418;DHT22;1722;51.316;12.370;2022-11-20T03:10:11;-1.20;85.30
3418;DHT22;1722;51.316;12.370;2022-11-20T03:12:38;-1.20;85.40
3418;DHT22;1722;51.316;12.370;2022-11-20T03:15:09;-1.20;85.80
3418;DHT22;1722;51.316;12.370;2022-11-20T03:17:36;-1.30;86.20
3418;DHT22;1722;51.316;12.370;2022-11-20T03:20:05;-1.30;85.90
3418;DHT22;1722;51.316;12.370;2022-11-20T03:22:33;-1.40;86.10
3418;DHT22;1722;51.316;12.370;2022-11-20T03:25:00;-1.30;86.30
3418;DHT22;1722;51.316;12.370;2022-11-20T03:27:32;-1.40;86.60
3418;DHT22;1722;51.316;12.370;2022-11-20T03:30:00;-1.50;87.00
3418;DHT22;1722;51.316;12.370;2022-11-20T03:32:29;-1.60;87.20
3418;DHT22;1722;51.316;12.370;2022-11-20T03:34:57;-1.60;87.00
3418;DHT22;1722;51.316;12.370;2022-11-20T03:37:24;-1.50;86.60
3418;DHT22;1722;51.316;12.370;2022-11-20T03:39:52;-1.50;86.60
3418;DHT22;1722;51.316;12.370;2022-11-20T03:42:19;-1.60;86.90
3418;DHT22;1722;51.316;12.370;2022-11-20T03:45:05;-1.60;86.80
3418;DHT22;1722;51.316;12.370;2022-11-20T03:47:34;-1.60;86.60
3418;DHT22;1722;51.316;12.370;2022-11-20T03:50:02;-1.50;86.50
3418;DHT22;1722;51.316;12.370;2022-11-20T03:52:30;-1.50;86.20
3418;DHT22;1722;51.316;12.370;2022-11-20T03:54:57;-1.50;86.80
3418;DHT22;1722;51.316;12.370;2022-11-20T03:57:25;-1.50;86.70
3418;DHT22;1722;51.316;12.370;2022-11-20T03:59:52;-1.50;86.20
3418;DHT22;1722;51.316;12.370;2022-11-20T04:02:20;-1.50;86.40
3418;DHT22;1722;51.316;12.370;2022-11-20T04:04:49;-1.60;86.70
3418;DHT22;1722;51.316;12.370;2022-11-20T04:07:16;-1.70;86.90
3418;DHT22;1722;51.316;12.370;2022-11-20T04:09:44;-1.60;86.70
3418;DHT22;1722;51.316;12.370;2022-11-20T04:12:11;-1.70;86.80
3418;DHT22;1722;51.316;12.370;2022-11-20T04:14:39;-1.80;87.60
3418;DHT22;1722;51.316;12.370;2022-11-20T04:17:06;-1.80;87.40
3418;DHT22;1722;51.316;12.370;2022-11-20T04:19:34;-1.70;87.00
3418;DHT22;1722;51.316;12.370;2022-11-20T04:22:03;-1.70;87.00
3418;DHT22;1722;51.316;12.370;2022-11-20T04:24:30;-1.70;86.70
3418;DHT22;1722;51.316;12.370;2022-11-20T04:26:58;-1.80;87.00
3418;DHT22;1722;51.316;12.370;2022-11-20T04:29:25;-1.80;87.20
3418;DHT22;1722;51.316;12.370;2022-11-20T04:31:53;-1.80;86.70
3418;DHT22;1722;51.316;12.370;2022-11-20T04:34:20;-1.80;86.90
3418;DHT22;1722;51.316;12.370;2022-11-20T04:36:48;-1.80;86.60
3418;DHT22;1722;51.316;12.370;2022-11-20T04:39:17;-1.80;86.40
3418;DHT22;1722;51.316;12.370;2022-11-20T04:41:44;-1.70;86.30
3418;DHT22;1722;51.316;12.370;2022-11-20T04:44:12;-1.70;86.20
3418;DHT22;1722;51.316;12.370;2022-11-20T04:46:41;-1.80;86.70
3418;DHT22;1722;51.316;12.370;2022-11-20T04:49:10;-1.80;86.70
3418;DHT22;1722;51.316;12.370;2022-11-20T04:51:38;-1.80;86.70
3418;DHT22;1722;51.316;12.370;2022-11-20T04:54:06;-1.80;86.30
3418;DHT22;1722;51.316;12.370;2022-11-20T04:56:35;-1.80;86.50
3418;DHT22;1722;51.316;12.370;2022-11-20T04:59:02;-1.80;87.80
3418;DHT22;1722;51.316;12.370;2022-11-20T05:01:30;-1.80;86.80
3418;DHT22;1722;51.316;12.370;2022-11-20T05:03:58;-2.00;87.60
3418;DHT22;1722;51.316;12.370;2022-11-20T05:06:26;-2.00;87.70
3418;DHT22;1722;51.316;12.370;2022-11-20T05:08:53;-2.00;87.60
3418;DHT22;1722;51.316;12.370;2022-11-20T05:11:21;-2.10;87.90
3418;DHT22;1722;51.316;12.370;2022-11-20T05:13:51;-2.10;88.00
3418;DHT22;1722;51.316;12.370;2022-11-20T05:16:20;-2.20;88.20
3418;DHT22;1722;51.316;12.370;2022-11-20T05:18:48;-2.10;88.30
3418;DHT22;1722;51.316;12.370;2022-11-20T05:21:16;-2.10;88.40
3418;DHT22;1722;51.316;12.370;2022-11-20T05:23:44;-2.10;88.30
3418;DHT22;1722;51.316;12.370;2022-11-20T05:26:14;-2.20;88.20
3418;DHT22;1722;51.316;12.370;2022-11-20T05:28:42;-2.10;88.00
3418;DHT22;1722;51.316;12.370;2022-11-20T05:31:12;-2.10;87.60
3418;DHT22;1722;51.316;12.370;2022-11-20T05:33:41;-2.10;87.50
3418;DHT22;1722;51.316;12.370;2022-11-20T05:36:10;-2.10;87.20
3418;DHT22;1722;51.316;12.370;2022-11-20T05:38:38;-2.00;87.00
3418;DHT22;1722;51.316;12.370;2022-11-20T05:41:07;-2.00;86.50
3418;DHT22;1722;51.316;12.370;2022-11-20T05:43:36;-1.90;86.20
3418;DHT22;1722;51.316;12.370;2022-11-20T05:46:06;-1.90;86.00
3418;DHT22;1722;51.316;12.370;2022-11-20T05:48:35;-1.90;85.80
3418;DHT22;1722;51.316;12.370;2022-11-20T05:51:05;-1.90;85.70
3418;DHT22;1722;51.316;12.370;2022-11-20T05:53:34;-1.90;85.70
3418;DHT22;1722;51.316;12.370;2022-11-20T05:56:04;-1.90;85.70
3418;DHT22;1722;51.316;12.370;2022-11-20T05:58:32;-1.90;85.50
3418;DHT22;1722;51.316;12.370;2022-11-20T06:01:05;-2.00;86.40
3418;DHT22;1722;51.316;12.370;2022-11-20T06:03:32;-2.10;86.80
3418;DHT22;1722;51.316;12.370;2022-11-20T06:06:02;-2.30;87.40
3418;DHT22;1722;51.316;12.370;2022-11-20T06:08:30;-2.20;87.10
3418;DHT22;1722;51.316;12.370;2022-11-20T06:10:58;-2.20;86.90
3418;DHT22;1722;51.316;12.370;2022-11-20T06:13:25;-2.10;86.60
3418;DHT22;1722;51.316;12.370;2022-11-20T06:15:53;-2.10;86.30
3418;DHT22;1722;51.316;12.370;2022-11-20T06:18:20;-2.10;87.20
3418;DHT22;1722;51.316;12.370;2022-11-20T06:20:48;-2.20;86.50
3418;DHT22;1722;51.316;12.370;2022-11-20T06:23:17;-2.10;86.20
3418;DHT22;1722;51.316;12.370;2022-11-20T06:25:44;-2.10;85.90
3418;DHT22;1722;51.316;12.370;2022-11-20T06:28:12;-2.10;85.90
3418;DHT22;1722;51.316;12.370;2022-11-20T06:30:44;-2.20;86.10
3418;DHT22;1722;51.316;12.370;2022-11-20T06:33:12;-2.10;86.10
3418;DHT22;1722;51.316;12.370;2022-11-20T06:35:40;-2.20;86.40
3418;DHT22;1722;51.316;12.370;2022-11-20T06:38:07;-2.20;86.60
3418;DHT22;1722;51.316;12.370;2022-11-20T06:40:38;-2.20;86.20
3418;DHT22;1722;51.316;12.370;2022-11-20T06:43:07;-2.20;86.20
3418;DHT22;1722;51.316;12.370;2022-11-20T06:45:34;-2.10;86.00
3418;DHT22;1722;51.316;12.370;2022-11-20T06:48:02;-2.10;85.80
3418;DHT22;1722;51.316;12.370;2022-11-20T06:50:30;-2.10;85.90
3418;DHT22;1722;51.316;12.370;2022-11-20T06:53:00;-2.10;85.80
3418;DHT22;1722;51.316;12.370;2022-11-20T06:55:28;-2.10;85.70
3418;DHT22;1722;51.316;12.370;2022-11-20T06:57:57;-2.10;85.60
3418;DHT22;1722;51.316;12.370;2022-11-20T07:00:25;-2.10;85.70
3418;DHT22;1722;51.316;12.370;2022-11-20T07:02:52;-2.10;85.80
3418;DHT22;1722;51.316;12.370;2022-11-20T07:05:20;-2.10;85.80
3418;DHT22;1722;51.316;12.370;2022-11-20T07:07:47;-2.10;85.70
3418;DHT22;1722;51.316;12.370;2022-11-20T07:10:15;-2.10;85.90
3418;DHT22;1722;51.316;12.370;2022-11-20T07:12:48;-2.10;86.00
3418;DHT22;1722;51.316;12.370;2022-11-20T07:15:17;-2.10;85.80
3418;DHT22;1722;51.316;12.370;2022-11-20T07:17:45;-2.10;85.80
3418;DHT22;1722;51.316;12.370;2022-11-20T07:20:12;-2.10;85.70
3418;DHT22;1722;51.316;12.370;2022-11-20T07:22:40;-2.10;85.60
3418;DHT22;1722;51.316;12.370;2022-11-20T07:25:09;-2.10;85.60
3418;DHT22;1722;51.316;12.370;2022-11-20T07:27:36;-2.10;86.40
3418;DHT22;1722;51.316;12.370;2022-11-20T07:30:05;-2.20;86.40
3418;DHT22;1722;51.316;12.370;2022-11-20T07:32:34;-2.20;86.70
3418;DHT22;1722;51.316;12.370;2022-11-20T07:35:02;-2.30;87.70
3418;DHT22;1722;51.316;12.370;2022-11-20T07:37:29;-2.40;87.70
3418;DHT22;1722;51.316;12.370;2022-11-20T07:39:57;-2.30;87.60
3418;DHT22;1722;51.316;12.370;2022-11-20T07:42:24;-2.40;88.00
3418;DHT22;1722;51.316;12.370;2022-11-20T07:44:52;-2.40;87.70
3418;DHT22;1722;51.316;12.370;2022-11-20T07:47:19;-2.30;87.30
3418;DHT22;1722;51.316;12.370;2022-11-20T07:49:48;-2.30;88.30
3418;DHT22;1722;51.316;12.370;2022-11-20T07:52:16;-2.40;88.50
3418;DHT22;1722;51.316;12.370;2022-11-20T07:54:43;-2.40;88.10
3418;DHT22;1722;51.316;12.370;2022-11-20T07:57:11;-2.30;87.70
3418;DHT22;1722;51.316;12.370;2022-11-20T07:59:38;-2.30;89.00
3418;DHT22;1722;51.316;12.370;2022-11-20T08:02:09;-2.20;87.90
3418;DHT22;1722;51.316;12.370;2022-11-20T08:04:36;-2.20;87.90
3418;DHT22;1722;51.316;12.370;2022-11-20T08:07:05;-2.20;88.50
3418;DHT22;1722;51.316;12.370;2022-11-20T08:09:33;-2.10;88.00
3418;DHT22;1722;51.316;12.370;2022-11-20T08:12:00;-2.00;87.60
3418;DHT22;1722;51.316;12.370;2022-11-20T08:14:45;-2.00;88.20
3418;DHT22;1722;51.316;12.370;2022-11-20T08:17:13;-2.00;88.30
3418;DHT22;1722;51.316;12.370;2022-11-20T08:19:41;-1.90;87.80
3418;DHT22;1722;51.316;12.370;2022-11-20T08:22:09;-2.00;88.40
3418;DHT22;1722;51.316;12.370;2022-11-20T08:24:37;-2.10;88.90
3418;DHT22;1722;51.316;12.370;2022-11-20T08:27:04;-2.30;90.10
3418;DHT22;1722;51.316;12.370;2022-11-20T08:29:32;-2.20;89.30
3418;DHT22;1722;51.316;12.370;2022-11-20T08:32:00;-2.30;89.90
3418;DHT22;1722;51.316;12.370;2022-11-20T08:34:27;-2.20;90.00
3418;DHT22;1722;51.316;12.370;2022-11-20T08:36:55;-2.20;89.40
3418;DHT22;1722;51.316;12.370;2022-11-20T08:39:24;-2.00;89.00
3418;DHT22;1722;51.316;12.370;2022-11-20T08:41:51;-2.10;89.00
3418;DHT22;1722;51.316;12.370;2022-11-20T08:44:19;-2.10;89.80
3418;DHT22;1722;51.316;12.370;2022-11-20T08:46:46;-2.10;88.80
3418;DHT22;1722;51.316;12.370;2022-11-20T08:49:14;-2.20;90.60
3418;DHT22;1722;51.316;12.370;2022-11-20T08:51:42;-2.10;90.40
3418;DHT22;1722;51.316;12.370;2022-11-20T08:54:10;-2.20;90.90
3418;DHT22;1722;51.316;12.370;2022-11-20T08:56:39;-2.40;91.60
3418;DHT22;1722;51.316;12.370;2022-11-20T08:59:06;-2.40;92.00
3418;DHT22;1722;51.316;12.370;2022-11-20T09:01:34;-2.40;92.20
3418;DHT22;1722;51.316;12.370;2022-11-20T09:04:01;-2.40;92.30
3418;DHT22;1722;51.316;12.370;2022-11-20T09:06:30;-2.30;92.20
3418;DHT22;1722;51.316;12.370;2022-11-20T09:08:58;-2.20;91.90
3418;DHT22;1722;51.316;12.370;2022-11-20T09:11:25;-2.40;92.70
3418;DHT22;1722;51.316;12.370;2022-11-20T09:13:54;-2.20;92.00
3418;DHT22;1722;51.316;12.370;2022-11-20T09:16:22;-2.10;91.60
3418;DHT22;1722;51.316;12.370;2022-11-20T09:18:50;-2.00;92.10
3418;DHT22;1722;51.316;12.370;2022-11-20T09:21:17;-1.90;91.80
3418;DHT22;1722;51.316;12.370;2022-11-20T09:23:45;-1.90;91.70
3418;DHT22;1722;51.316;12.370;2022-11-20T09:26:13;-1.80;91.60
3418;DHT22;1722;51.316;12.370;2022-11-20T09:28:41;-1.80;91.10
3418;DHT22;1722;51.316;12.370;2022-11-20T09:31:23;-1.80;91.50
3418;DHT22;1722;51.316;12.370;2022-11-20T09:33:50;-1.80;92.20
3418;DHT22;1722;51.316;12.370;2022-11-20T09:36:18;-1.90;92.30
3418;DHT22;1722;51.316;12.370;2022-11-20T09:38:46;-1.70;91.80
3418;DHT22;1722;51.316;12.370;2022-11-20T09:41:34;-1.70;91.60
3418;DHT22;1722;51.316;12.370;2022-11-20T09:44:13;-1.70;92.40
3418;DHT22;1722;51.316;12.370;2022-11-20T09:46:52;-1.70;92.80
3418;DHT22;1722;51.316;12.370;2022-11-20T09:49:28;-1.80;93.10
3418;DHT22;1722;51.316;12.370;2022-11-20T09:52:00;-1.80;93.20
3418;DHT22;1722;51.316;12.370;2022-11-20T09:54:31;-1.80;93.30
3418;DHT22;1722;51.316;12.370;2022-11-20T09:57:02;-1.70;93.40
3418;DHT22;1722;51.316;12.370;2022-11-20T09:59:35;-1.70;93.30
3418;DHT22;1722;51.316;12.370;2022-11-20T10:02:15;-1.60;93.10
3418;DHT22;1722;51.316;12.370;2022-11-20T10:04:45;-1.50;93.00
3418;DHT22;1722;51.316;12.370;2022-11-20T10:07:17;-1.50;93.20
3418;DHT22;1722;51.316;12.370;2022-11-20T10:09:52;-1.40;92.80
3418;DHT22;1722;51.316;12.370;2022-11-20T10:12:27;-1.30;93.40
3418;DHT22;1722;51.316;12.370;2022-11-20T10:15:11;-1.40;93.90
3418;DHT22;1722;51.316;12.370;2022-11-20T10:17:59;-1.30;93.30
3418;DHT22;1722;51.316;12.370;2022-11-20T10:20:35;-1.20;93.10
3418;DHT22;1722;51.316;12.370;2022-11-20T10:26:19;-0.90;93.20
3418;DHT22;1722;51.316;12.370;2022-11-20T10:28:56;-0.90;93.30
3418;DHT22;1722;51.316;12.370;2022-11-20T10:31:31;-0.90;93.70
3418;DHT22;1722;51.316;12.370;2022-11-20T10:34:06;-0.90;93.80
3418;DHT22;1722;51.316;12.370;2022-11-20T10:36:38;-1.00;93.80
3418;DHT22;1722;51.316;12.370;2022-11-20T10:39:16;-1.10;94.00
3418;DHT22;1722;51.316;12.370;2022-11-20T10:41:46;-1.00;94.10
3418;DHT22;1722;51.316;12.370;2022-11-20T10:44:19;-0.90;93.90
3418;DHT22;1722;51.316;12.370;2022-11-20T10:47:13;-0.80;93.80
3418;DHT22;1722;51.316;12.370;2022-11-20T10:49:44;-0.60;93.40
3418;DHT22;1722;51.316;12.370;2022-11-20T10:52:19;-0.60;93.70
3418;DHT22;1722;51.316;12.370;2022-11-20T10:54:56;-0.50;93.50
3418;DHT22;1722;51.316;12.370;2022-11-20T10:57:41;-0.40;93.00
3418;DHT22;1722;51.316;12.370;2022-11-20T11:00:13;-0.40;92.80
3418;DHT22;1722;51.316;12.370;2022-11-20T11:02:46;-0.30;92.60
3418;DHT22;1722;51.316;12.370;2022-11-20T11:05:22;-0.30;92.70
3418;DHT22;1722;51.316;12.370;2022-11-20T11:07:55;-0.20;92.60
3418;DHT22;1722;51.316;12.370;2022-11-20T11:10:32;-0.10;92.60
3418;DHT22;1722;51.316;12.370;2022-11-20T11:13:03;-0.10;92.50
3418;DHT22;1722;51.316;12.370;2022-11-20T11:15:38;0.00;92.60
3418;DHT22;1722;51.316;12.370;2022-11-20T11:18:08;0.00;92.50
3418;DHT22;1722;51.316;12.370;2022-11-20T11:20:38;0.10;92.80
3418;DHT22;1722;51.316;12.370;2022-11-20T11:23:26;0.20;92.40
3418;DHT22;1722;51.316;12.370;2022-11-20T11:25:57;0.10;92.20
3418;DHT22;1722;51.316;12.370;2022-11-20T11:28:26;0.10;92.20
3418;DHT22;1722;51.316;12.370;2022-11-20T11:30:54;0.10;92.50
3418;DHT22;1722;51.316;12.370;2022-11-20T11:33:24;0.00;92.20
3418;DHT22;1722;51.316;12.370;2022-11-20T11:35:54;-0.10;92.00
3418;DHT22;1722;51.316;12.370;2022-11-20T11:38:29;-0.10;92.30
3418;DHT22;1722;51.316;12.370;2022-11-20T11:40:57;0.00;92.10
3418;DHT22;1722;51.316;12.370;2022-11-20T11:43:27;0.00;92.10
3418;DHT22;1722;51.316;12.370;2022-11-20T11:46:28;-0.10;92.10
3418;DHT22;1722;51.316;12.370;2022-11-20T11:48:57;-0.10;92.10
3418;DHT22;1722;51.316;12.370;2022-11-20T11:51:32;-0.20;92.10
3418;DHT22;1722;51.316;12.370;2022-11-20T11:54:01;-0.10;92.00
3418;DHT22;1722;51.316;12.370;2022-11-20T11:56:33;0.00;91.90
3418;DHT22;1722;51.316;12.370;2022-11-20T11:59:08;0.10;91.50
3418;DHT22;1722;51.316;12.370;2022-11-20T12:01:41;0.30;91.60
3418;DHT22;1722;51.316;12.370;2022-11-20T12:04:16;0.60;91.40
3418;DHT22;1722;51.316;12.370;2022-11-20T12:06:51;0.80;90.90
3418;DHT22;1722;51.316;12.370;2022-11-20T12:09:24;1.10;90.20
3418;DHT22;1722;51.316;12.370;2022-11-20T12:11:55;1.40;89.70
3418;DHT22;1722;51.316;12.370;2022-11-20T12:14:30;1.60;89.40
3418;DHT22;1722;51.316;12.370;2022-11-20T12:17:00;1.70;88.40
3418;DHT22;1722;51.316;12.370;2022-11-20T12:19:30;1.80;86.70
3418;DHT22;1722;51.316;12.370;2022-11-20T12:22:06;1.90;87.80
3418;DHT22;1722;51.316;12.370;2022-11-20T12:24:51;2.00;86.70
3418;DHT22;1722;51.316;12.370;2022-11-20T12:27:40;2.10;86.10
3418;DHT22;1722;51.316;12.370;2022-11-20T12:30:13;2.10;85.90
3418;DHT22;1722;51.316;12.370;2022-11-20T12:33:13;2.30;86.00
3418;DHT22;1722;51.316;12.370;2022-11-20T12:35:51;2.50;85.60
3418;DHT22;1722;51.316;12.370;2022-11-20T12:39:00;2.70;84.90
3418;DHT22;1722;51.316;12.370;2022-11-20T12:41:44;2.60;84.10
3418;DHT22;1722;51.316;12.370;2022-11-20T12:44:42;3.00;83.40
3418;DHT22;1722;51.316;12.370;2022-11-20T12:47:36;3.10;82.80
3418;DHT22;1722;51.316;12.370;2022-11-20T12:50:15;3.00;82.60
3418;DHT22;1722;51.316;12.370;2022-11-20T12:52:48;3.00;83.10
3418;DHT22;1722;51.316;12.370;2022-11-20T12:55:25;3.10;82.90
3418;DHT22;1722;51.316;12.370;2022-11-20T12:57:59;3.20;81.70
3418;DHT22;1722;51.316;12.370;2022-11-20T13:00:31;3.30;82.00
3418;DHT22;1722;51.316;12.370;2022-11-20T13:03:16;3.50;81.00
3418;DHT22;1722;51.316;12.370;2022-11-20T13:05:55;3.70;80.50
3418;DHT22;1722;51.316;12.370;2022-11-20T13:08:29;3.80;81.00
3418;DHT22;1722;51.316;12.370;2022-11-20T13:11:05;4.00;78.80
3418;DHT22;1722;51.316;12.370;2022-11-20T13:13:44;4.30;76.90
3418;DHT22;1722;51.316;12.370;2022-11-20T13:16:16;4.30;76.30
3418;DHT22;1722;51.316;12.370;2022-11-20T13:18:47;4.40;76.30
3418;DHT22;1722;51.316;12.370;2022-11-20T13:21:16;4.20;76.90
3418;DHT22;1722;51.316;12.370;2022-11-20T13:23:44;4.30;77.40
3418;DHT22;1722;51.316;12.370;2022-11-20T13:26:19;4.30;76.30
3418;DHT22;1722;51.316;12.370;2022-11-20T13:28:59;4.30;75.40
3418;DHT22;1722;51.316;12.370;2022-11-20T13:31:31;4.40;74.40
3418;DHT22;1722;51.316;12.370;2022-11-20T13:34:00;4.50;75.70
3418;DHT22;1722;51.316;12.370;2022-11-20T13:36:29;4.70;76.00
3418;DHT22;1722;51.316;12.370;2022-11-20T13:38:58;4.50;76.30
3418;DHT22;1722;51.316;12.370;2022-11-20T13:41:30;4.30;76.30
3418;DHT22;1722;51.316;12.370;2022-11-20T13:44:09;4.40;76.60
3418;DHT22;1722;51.316;12.370;2022-11-20T13:46:39;4.30;75.70
3418;DHT22;1722;51.316;12.370;2022-11-20T13:49:14;4.50;72.70
3418;DHT22;1722;51.316;12.370;2022-11-20T13:51:45;4.70;71.60
3418;DHT22;1722;51.316;12.370;2022-11-20T13:54:39;4.80;74.30
3418;DHT22;1722;51.316;12.370;2022-11-20T13:57:36;4.70;74.70
3418;DHT22;1722;51.316;12.370;2022-11-20T14:00:12;4.50;75.50
3418;DHT22;1722;51.316;12.370;2022-11-20T14:02:40;4.30;76.20
3418;DHT22;1722;51.316;12.370;2022-11-20T14:05:17;4.20;76.70
3418;DHT22;1722;51.316;12.370;2022-11-20T14:07:48;4.20;77.70
3418;DHT22;1722;51.316;12.370;2022-11-20T14:10:20;4.20;77.90
3418;DHT22;1722;51.316;12.370;2022-11-20T14:12:49;4.20;78.30
3418;DHT22;1722;51.316;12.370;2022-11-20T14:15:28;4.30;78.50
3418;DHT22;1722;51.316;12.370;2022-11-20T14:17:56;4.20;78.90
3418;DHT22;1722;51.316;12.370;2022-11-20T14:20:26;4.10;79.00
3418;DHT22;1722;51.316;12.370;2022-11-20T14:22:54;4.10;79.30
3418;DHT22;1722;51.316;12.370;2022-11-20T14:25:23;4.00;79.40
3418;DHT22;1722;51.316;12.370;2022-11-20T14:27:56;4.00;80.10
3418;DHT22;1722;51.316;12.370;2022-11-20T14:30:26;4.00;79.70
3418;DHT22;1722;51.316;12.370;2022-11-20T14:32:56;4.00;79.90
3418;DHT22;1722;51.316;12.370;2022-11-20T14:35:27;4.00;79.40
3418;DHT22;1722;51.316;12.370;2022-11-20T14:37:55;4.00;79.60
3418;DHT22;1722;51.316;12.370;2022-11-20T14:40:28;4.00;78.00
3418;DHT22;1722;51.316;12.370;2022-11-20T14:42:59;4.10;79.20
3418;DHT22;1722;51.316;12.370;2022-11-20T14:45:26;4.00;78.70
3418;DHT22;1722;51.316;12.370;2022-11-20T14:47:56;4.10;79.10
3418;DHT22;1722;51.316;12.370;2022-11-20T14:50:26;4.00;79.10
3418;DHT22;1722;51.316;12.370;2022-11-20T14:52:55;3.90;79.40
3418;DHT22;1722;51.316;12.370;2022-11-20T14:55:31;3.90;80.10
3418;DHT22;1722;51.316;12.370;2022-11-20T14:58:02;3.80;80.30
3418;DHT22;1722;51.316;12.370;2022-11-20T15:00:32;3.70;80.60
3418;DHT22;1722;51.316;12.370;2022-11-20T15:03:00;3.60;80.80
3418;DHT22;1722;51.316;12.370;2022-11-20T15:05:46;3.60;81.00
3418;DHT22;1722;51.316;12.370;2022-11-20T15:08:15;3.50;80.80
3418;DHT22;1722;51.316;12.370;2022-11-20T15:10:47;3.50;80.60
3418;DHT22;1722;51.316;12.370;2022-11-20T15:13:24;3.50;81.00
3418;DHT22;1722;51.316;12.370;2022-11-20T15:15:54;3.40;81.30
3418;DHT22;1722;51.316;12.370;2022-11-20T15:18:24;3.30;81.50
3418;DHT22;1722;51.316;12.370;2022-11-20T15:20:54;3.20;82.00
3418;DHT22;1722;51.316;12.370;2022-11-20T15:23:22;3.10;82.10
3418;DHT22;1722;51.316;12.370;2022-11-20T15:25:50;3.10;82.50
3418;DHT22;1722;51.316;12.370;2022-11-20T15:28:20;3.00;82.00
3418;DHT22;1722;51.316;12.370;2022-11-20T15:30:49;2.90;82.00
3418;DHT22;1722;51.316;12.370;2022-11-20T15:33:17;2.90;83.10
3418;DHT22;1722;51.316;12.370;2022-11-20T15:35:45;2.90;82.50
3418;DHT22;1722;51.316;12.370;2022-11-20T15:38:13;2.90;82.60
3418;DHT22;1722;51.316;12.370;2022-11-20T15:40:40;2.80;82.60
3418;DHT22;1722;51.316;12.370;2022-11-20T15:43:08;2.80;83.00
3418;DHT22;1722;51.316;12.370;2022-11-20T15:45:38;2.70;83.20
3418;DHT22;1722;51.316;12.370;2022-11-20T15:48:10;2.70;83.00
3418;DHT22;1722;51.316;12.370;2022-11-20T15:50:43;2.70;82.80
3418;DHT22;1722;51.316;12.370;2022-11-20T15:53:11;2.70;83.20
3418;DHT22;1722;51.316;12.370;2022-11-20T15:55:38;2.60;83.20
3418;DHT22;1722;51.316;12.370;2022-11-20T15:58:06;2.60;83.10
3418;DHT22;1722;51.316;12.370;2022-11-20T16:00:33;2.60;82.60
3418;DHT22;1722;51.316;12.370;2022-11-20T16:03:02;2.50;83.40
3418;DHT22;1722;51.316;12.370;2022-11-20T16:05:30;2.40;83.30
3418;DHT22;1722;51.316;12.370;2022-11-20T16:07:58;2.40;83.40
3418;DHT22;1722;51.316;12.370;2022-11-20T16:10:25;2.40;83.80
3418;DHT22;1722;51.316;12.370;2022-11-20T16:12:53;2.30;83.80
3418;DHT22;1722;51.316;12.370;2022-11-20T16:15:38;2.30;83.60